createdAt,value
2023-02-01T00:00:10.033Z,969.74
2023-02-01T00:01:10.018Z,969.79
2023-02-01T00:02:10.034Z,969.78
2023-02-01T00:03:10.019Z,969.76
2023-02-01T00:04:09.952Z,969.75
2023-02-01T00:05:09.947Z,969.79
2023-02-01T00:06:09.951Z,969.77
2023-02-01T00:07:09.948Z,969.80
2023-02-01T00:08:09.949Z,969.69
2023-02-01T00:09:09.928Z,969.69
2023-02-01T00:10:09.886Z,969.68
2023-02-01T00:11:09.877Z,969.63
2023-02-01T00:12:09.890Z,969.66
2023-02-01T00:13:09.884Z,969.64
2023-02-01T00:14:09.889Z,969.67
2023-02-01T00:15:09.859Z,969.68
2023-02-01T00:16:09.999Z,969.69
2023-02-01T00:17:09.818Z,969.64
2023-02-01T00:18:09.840Z,969.66
2023-02-01T00:19:09.825Z,969.69
2023-02-01T00:20:09.787Z,969.71
2023-02-01T00:21:09.790Z,969.69
2023-02-01T00:22:09.801Z,969.62
2023-02-01T00:23:09.804Z,969.64
2023-02-01T00:24:09.771Z,969.68
2023-02-01T00:25:09.724Z,969.61
2023-02-01T00:26:09.738Z,969.60
2023-02-01T00:27:09.709Z,969.64
2023-02-01T00:28:09.696Z,969.60
2023-02-01T00:29:09.685Z,969.60
2023-02-01T00:30:09.761Z,969.53
2023-02-01T00:31:09.803Z,969.50
2023-02-01T00:32:09.684Z,969.50
2023-02-01T00:33:09.635Z,969.44
2023-02-01T00:34:09.624Z,969.45
2023-02-01T00:35:09.638Z,969.49
2023-02-01T00:36:09.640Z,969.47
2023-02-01T00:37:09.609Z,969.50
2023-02-01T00:38:09.600Z,969.40
2023-02-01T00:39:09.567Z,969.47
2023-02-01T00:40:09.601Z,969.36
2023-02-01T00:41:09.547Z,969.44
2023-02-01T00:42:09.580Z,969.40
2023-02-01T00:43:09.534Z,969.41
2023-02-01T00:44:09.553Z,969.44
2023-02-01T00:45:09.543Z,969.45
2023-02-01T00:46:09.611Z,969.50
2023-02-01T00:47:09.490Z,969.50
2023-02-01T00:48:09.488Z,969.43
2023-02-01T00:49:09.473Z,969.42
2023-02-01T00:50:09.452Z,969.45
2023-02-01T00:51:09.477Z,969.46
2023-02-01T00:52:09.484Z,969.42
2023-02-01T00:53:09.422Z,969.47
2023-02-01T00:54:09.411Z,969.52
2023-02-01T00:55:09.427Z,969.49
2023-02-01T00:56:09.389Z,969.47
2023-02-01T00:57:09.392Z,969.49
2023-02-01T00:58:09.382Z,969.43
2023-02-01T00:59:09.379Z,969.41
2023-02-01T01:00:09.342Z,969.45
2023-02-01T01:01:09.417Z,969.44
2023-02-01T01:02:09.400Z,969.50
2023-02-01T01:03:09.311Z,969.49
2023-02-01T01:04:09.344Z,969.47
2023-02-01T01:05:09.286Z,969.48
2023-02-01T01:06:17.772Z,969.40
2023-02-01T01:07:09.278Z,969.41
2023-02-01T01:08:09.251Z,969.39
2023-02-01T01:09:09.249Z,969.47
2023-02-01T01:10:09.254Z,969.40
2023-02-01T01:11:09.244Z,969.46
2023-02-01T01:12:09.211Z,969.48
2023-02-01T01:13:09.222Z,969.43
2023-02-01T01:14:09.225Z,969.51
2023-02-01T01:15:09.185Z,969.48
2023-02-01T01:16:09.284Z,969.49
2023-02-01T01:17:09.164Z,969.52
2023-02-01T01:18:09.154Z,969.49
2023-02-01T01:19:09.165Z,969.51
2023-02-01T01:20:09.135Z,969.44
2023-02-01T01:21:09.123Z,969.36
2023-02-01T01:22:09.130Z,969.38
2023-02-01T01:23:09.103Z,969.45
2023-02-01T01:24:09.085Z,969.39
2023-02-01T01:25:09.055Z,969.44
2023-02-01T01:26:09.058Z,969.36
2023-02-01T01:27:09.055Z,969.41
2023-02-01T01:28:09.041Z,969.38
2023-02-01T01:29:09.023Z,969.40
2023-02-01T01:30:09.007Z,969.39
2023-02-01T01:31:09.095Z,969.43
2023-02-01T01:32:09.008Z,969.44
2023-02-01T01:33:09.002Z,969.39
2023-02-01T01:34:09.255Z,969.33
2023-02-01T01:35:08.957Z,969.41
2023-02-01T01:36:08.986Z,969.27
2023-02-01T01:37:08.945Z,969.26
2023-02-01T01:38:08.907Z,969.21
2023-02-01T01:39:08.954Z,969.22
2023-02-01T01:40:08.900Z,969.20
2023-02-01T01:41:08.905Z,969.22
2023-02-01T01:42:08.863Z,969.19
2023-02-01T01:43:08.868Z,969.18
2023-02-01T01:44:08.888Z,969.17
2023-02-01T01:45:08.865Z,969.13
2023-02-01T01:46:08.840Z,969.11
2023-02-01T01:47:08.851Z,969.15
2023-02-01T01:48:08.797Z,969.17
2023-02-01T01:49:08.810Z,969.16
2023-02-01T01:50:08.789Z,969.09
2023-02-01T01:51:08.780Z,969.14
2023-02-01T01:52:08.795Z,969.13
2023-02-01T01:53:08.776Z,969.17
2023-02-01T01:54:08.745Z,969.12
2023-02-01T01:55:08.742Z,969.15
2023-02-01T01:56:08.720Z,969.12
2023-02-01T01:57:08.719Z,969.14
2023-02-01T01:58:08.701Z,969.09
2023-02-01T01:59:08.675Z,969.18
2023-02-01T02:00:08.685Z,969.19
2023-02-01T02:01:08.724Z,969.17
2023-02-01T02:02:08.687Z,969.15
2023-02-01T02:03:08.651Z,969.11
2023-02-01T02:04:08.645Z,969.15
2023-02-01T02:05:08.607Z,969.05
2023-02-01T02:06:08.614Z,969.10
2023-02-01T02:07:08.590Z,969.11
2023-02-01T02:08:08.654Z,969.04
2023-02-01T02:09:08.609Z,969.10
2023-02-01T02:10:08.556Z,969.04
2023-02-01T02:11:08.546Z,969.02
2023-02-01T02:12:08.548Z,969.07
2023-02-01T02:13:08.565Z,969.06
2023-02-01T02:14:08.515Z,969.05
2023-02-01T02:15:08.538Z,969.00
2023-02-01T02:16:08.559Z,969.01
2023-02-01T02:17:08.483Z,968.98
2023-02-01T02:18:08.463Z,968.96
2023-02-01T02:19:08.469Z,969.02
2023-02-01T02:20:08.455Z,969.00
2023-02-01T02:21:08.472Z,968.95
2023-02-01T02:22:08.417Z,969.01
2023-02-01T02:23:08.426Z,968.96
2023-02-01T02:24:08.419Z,968.90
2023-02-01T02:25:08.386Z,968.92
2023-02-01T02:26:08.389Z,968.84
2023-02-01T02:27:08.402Z,968.89
2023-02-01T02:28:08.354Z,968.84
2023-02-01T02:29:08.350Z,968.95
2023-02-01T02:30:08.338Z,968.86
2023-02-01T02:31:08.349Z,968.87
2023-02-01T02:32:08.315Z,968.85
2023-02-01T02:33:08.337Z,968.87
2023-02-01T02:34:08.308Z,968.82
2023-02-01T02:35:08.280Z,968.88
2023-02-01T02:36:08.285Z,968.81
2023-02-01T02:37:08.265Z,968.81
2023-02-01T02:38:08.252Z,968.85
2023-02-01T02:39:08.286Z,968.87
2023-02-01T02:40:08.249Z,968.88
2023-02-01T02:41:08.213Z,968.90
2023-02-01T02:42:08.250Z,968.92
2023-02-01T02:43:08.201Z,968.93
2023-02-01T02:44:08.202Z,968.90
2023-02-01T02:45:08.205Z,968.80
2023-02-01T02:46:08.234Z,968.84
2023-02-01T02:47:08.149Z,968.86
2023-02-01T02:48:08.161Z,968.81
2023-02-01T02:49:08.136Z,968.78
2023-02-01T02:50:08.145Z,968.79
2023-02-01T02:51:08.099Z,968.75
2023-02-01T02:52:08.083Z,968.78
2023-02-01T02:53:08.094Z,968.78
2023-02-01T02:54:08.066Z,968.74
2023-02-01T02:55:08.068Z,968.71
2023-02-01T02:56:08.112Z,968.68
2023-02-01T02:57:08.043Z,968.69
2023-02-01T02:58:08.017Z,968.66
2023-02-01T02:59:08.027Z,968.67
2023-02-01T03:00:08.003Z,968.70
2023-02-01T03:01:08.040Z,968.69
2023-02-01T03:02:08.029Z,968.70
2023-02-01T03:03:07.987Z,968.68
2023-02-01T03:04:07.956Z,968.77
2023-02-01T03:05:07.948Z,968.73
2023-02-01T03:06:07.944Z,968.73
2023-02-01T03:07:07.951Z,968.75
2023-02-01T03:08:07.961Z,968.81
2023-02-01T03:09:07.921Z,968.76
2023-02-01T03:10:07.898Z,968.74
2023-02-01T03:11:07.899Z,968.81
2023-02-01T03:12:07.898Z,968.73
2023-02-01T03:13:07.848Z,968.73
2023-02-01T03:14:07.900Z,968.73
2023-02-01T03:15:07.855Z,968.78
2023-02-01T03:16:07.886Z,968.78
2023-02-01T03:17:07.848Z,968.65
2023-02-01T03:18:07.809Z,968.74
2023-02-01T03:19:07.787Z,968.62
2023-02-01T03:20:07.820Z,968.65
2023-02-01T03:21:07.797Z,968.64
2023-02-01T03:22:07.781Z,968.63
2023-02-01T03:23:07.751Z,968.51
2023-02-01T03:24:07.745Z,968.55
2023-02-01T03:25:07.720Z,968.62
2023-02-01T03:26:07.884Z,968.59
2023-02-01T03:27:07.705Z,968.59
2023-02-01T03:28:07.740Z,968.65
2023-02-01T03:29:07.676Z,968.63
2023-02-01T03:30:07.661Z,968.58
2023-02-01T03:31:07.675Z,968.54
2023-02-01T03:32:07.659Z,968.56
2023-02-01T03:33:07.672Z,968.56
2023-02-01T03:34:07.622Z,968.58
2023-02-01T03:35:07.622Z,968.57
2023-02-01T03:36:07.637Z,968.57
2023-02-01T03:37:07.626Z,968.61
2023-02-01T03:38:07.596Z,968.54
2023-02-01T03:39:07.572Z,968.55
2023-02-01T03:40:07.561Z,968.56
2023-02-01T03:41:07.558Z,968.51
2023-02-01T03:42:07.564Z,968.49
2023-02-01T03:43:07.516Z,968.51
2023-02-01T03:44:07.541Z,968.43
2023-02-01T03:45:07.493Z,968.44
2023-02-01T03:46:07.544Z,968.42
2023-02-01T03:47:07.470Z,968.35
2023-02-01T03:48:07.470Z,968.39
2023-02-01T03:49:07.461Z,968.32
2023-02-01T03:50:07.485Z,968.26
2023-02-01T03:51:07.449Z,968.30
2023-02-01T03:52:07.561Z,968.37
2023-02-01T03:53:07.411Z,968.36
2023-02-01T03:54:07.407Z,968.45
2023-02-01T03:55:07.418Z,968.41
2023-02-01T03:56:07.432Z,968.34
2023-02-01T03:57:07.367Z,968.45
2023-02-01T03:58:07.363Z,968.46
2023-02-01T03:59:07.347Z,968.46
2023-02-01T04:00:07.352Z,968.45
2023-02-01T04:01:07.388Z,968.42
2023-02-01T04:02:07.403Z,968.42
2023-02-01T04:03:07.305Z,968.47
2023-02-01T04:04:07.306Z,968.45
2023-02-01T04:05:07.319Z,968.44
2023-02-01T04:06:07.314Z,968.48
2023-02-01T04:07:07.335Z,968.44
2023-02-01T04:08:07.238Z,968.46
2023-02-01T04:09:07.245Z,968.44
2023-02-01T04:10:07.218Z,968.38
2023-02-01T04:11:07.304Z,968.50
2023-02-01T04:12:07.231Z,968.45
2023-02-01T04:13:07.264Z,968.42
2023-02-01T04:14:07.176Z,968.38
2023-02-01T04:15:07.177Z,968.40
2023-02-01T04:16:07.235Z,968.41
2023-02-01T04:17:07.137Z,968.46
2023-02-01T04:18:07.161Z,968.43
2023-02-01T04:19:07.152Z,968.38
2023-02-01T04:20:07.112Z,968.42
2023-02-01T04:21:07.119Z,968.42
2023-02-01T04:22:07.091Z,968.47
2023-02-01T04:23:07.070Z,968.35
2023-02-01T04:24:07.091Z,968.43
2023-02-01T04:25:07.083Z,968.34
2023-02-01T04:26:07.052Z,968.36
2023-02-01T04:27:07.092Z,968.40
2023-02-01T04:28:07.026Z,968.50
2023-02-01T04:29:07.004Z,968.44
2023-02-01T04:30:07.000Z,968.43
2023-02-01T04:31:07.119Z,968.52
2023-02-01T04:32:07.006Z,968.51
2023-02-01T04:33:06.958Z,968.44
2023-02-01T04:34:06.967Z,968.44
2023-02-01T04:35:06.955Z,968.50
2023-02-01T04:36:06.938Z,968.44
2023-02-01T04:37:06.938Z,968.45
2023-02-01T04:38:06.918Z,968.46
2023-02-01T04:39:06.899Z,968.39
2023-02-01T04:40:06.916Z,968.41
2023-02-01T04:41:06.881Z,968.44
2023-02-01T04:42:06.928Z,968.42
2023-02-01T04:43:06.904Z,968.43
2023-02-01T04:44:06.868Z,968.51
2023-02-01T04:45:06.835Z,968.53
2023-02-01T04:46:06.877Z,968.56
2023-02-01T04:47:06.817Z,968.52
2023-02-01T04:48:06.821Z,968.46
2023-02-01T04:49:06.819Z,968.45
2023-02-01T04:50:06.872Z,968.44
2023-02-01T04:51:06.757Z,968.37
2023-02-01T04:52:06.752Z,968.36
2023-02-01T04:53:06.745Z,968.33
2023-02-01T04:54:06.754Z,968.39
2023-02-01T04:55:06.746Z,968.48
2023-02-01T04:56:06.704Z,968.44
2023-02-01T04:57:06.690Z,968.48
2023-02-01T04:58:06.681Z,968.51
2023-02-01T04:59:06.689Z,968.49
2023-02-01T05:00:06.696Z,968.53
2023-02-01T05:01:06.705Z,968.57
2023-02-01T05:02:06.646Z,968.50
2023-02-01T05:03:06.663Z,968.52
2023-02-01T05:04:06.640Z,968.46
2023-02-01T05:05:06.600Z,968.47
2023-02-01T05:06:06.613Z,968.50
2023-02-01T05:07:06.613Z,968.42
2023-02-01T05:08:06.585Z,968.44
2023-02-01T05:09:06.560Z,968.39
2023-02-01T05:10:06.558Z,968.39
2023-02-01T05:11:06.578Z,968.42
2023-02-01T05:12:06.537Z,968.43
2023-02-01T05:13:06.545Z,968.42
2023-02-01T05:14:06.504Z,968.42
2023-02-01T05:15:06.498Z,968.45
2023-02-01T05:16:06.552Z,968.50
2023-02-01T05:17:06.495Z,968.48
2023-02-01T05:18:06.469Z,968.54
2023-02-01T05:19:06.481Z,968.65
2023-02-01T05:20:06.463Z,968.59
2023-02-01T05:21:06.450Z,968.54
2023-02-01T05:22:06.433Z,968.59
2023-02-01T05:23:06.416Z,968.61
2023-02-01T05:24:06.413Z,968.64
2023-02-01T05:25:08.305Z,968.59
2023-02-01T05:26:06.368Z,968.54
2023-02-01T05:27:06.383Z,968.58
2023-02-01T05:28:06.348Z,968.55
2023-02-01T05:29:06.370Z,968.54
2023-02-01T05:30:06.361Z,968.52
2023-02-01T05:31:06.440Z,968.47
2023-02-01T05:32:21.156Z,968.45
2023-02-01T05:33:07.301Z,968.44
2023-02-01T05:34:06.312Z,968.43
2023-02-01T05:35:06.278Z,968.43
2023-02-01T05:36:07.014Z,968.39
2023-02-01T05:37:06.245Z,968.31
2023-02-01T05:38:06.239Z,968.19
2023-02-01T05:39:06.233Z,968.10
2023-02-01T05:40:06.225Z,968.14
2023-02-01T05:41:06.238Z,968.17
2023-02-01T05:42:06.239Z,968.19
2023-02-01T05:43:06.192Z,968.23
2023-02-01T05:44:06.167Z,968.19
2023-02-01T05:45:06.200Z,968.25
2023-02-01T05:46:06.246Z,968.24
2023-02-01T05:47:06.158Z,968.29
2023-02-01T05:48:06.142Z,968.30
2023-02-01T05:49:06.139Z,968.31
2023-02-01T05:50:06.154Z,968.28
2023-02-01T05:51:06.091Z,968.31
2023-02-01T05:52:06.121Z,968.30
2023-02-01T05:53:06.091Z,968.30
2023-02-01T05:54:06.112Z,968.29
2023-02-01T05:55:06.074Z,968.30
2023-02-01T05:56:06.057Z,968.25
2023-02-01T05:57:06.030Z,968.30
2023-02-01T05:58:06.027Z,968.26
2023-02-01T05:59:06.042Z,968.27
2023-02-01T06:00:06.053Z,968.24
2023-02-01T06:01:05.978Z,968.32
2023-02-01T06:02:05.985Z,968.21
2023-02-01T06:03:06.046Z,968.30
2023-02-01T06:04:06.170Z,968.28
2023-02-01T06:05:05.976Z,968.27
2023-02-01T06:06:05.926Z,968.17
2023-02-01T06:07:05.947Z,968.22
2023-02-01T06:08:05.931Z,968.18
2023-02-01T06:09:05.905Z,968.25
2023-02-01T06:10:05.904Z,968.15
2023-02-01T06:11:05.912Z,968.22
2023-02-01T06:12:05.865Z,968.17
2023-02-01T06:13:05.882Z,968.17
2023-02-01T06:14:05.840Z,968.07
2023-02-01T06:15:05.835Z,968.08
2023-02-01T06:16:05.879Z,968.11
2023-02-01T06:17:05.802Z,968.13
2023-02-01T06:18:05.815Z,968.11
2023-02-01T06:19:05.815Z,968.12
2023-02-01T06:20:05.775Z,968.18
2023-02-01T06:21:05.777Z,968.17
2023-02-01T06:22:05.776Z,968.21
2023-02-01T06:23:05.750Z,968.21
2023-02-01T06:24:05.741Z,968.26
2023-02-01T06:25:05.720Z,968.20
2023-02-01T06:26:05.736Z,968.22
2023-02-01T06:27:05.747Z,968.20
2023-02-01T06:28:05.679Z,968.26
2023-02-01T06:29:05.681Z,968.24
2023-02-01T06:30:05.669Z,968.25
2023-02-01T06:31:05.731Z,968.23
2023-02-01T06:32:05.698Z,968.28
2023-02-01T06:33:05.645Z,968.27
2023-02-01T06:34:05.620Z,968.22
2023-02-01T06:35:05.600Z,968.19
2023-02-01T06:36:05.624Z,968.23
2023-02-01T06:37:05.603Z,968.24
2023-02-01T06:38:05.579Z,968.24
2023-02-01T06:39:05.591Z,968.26
2023-02-01T06:40:05.578Z,968.17
2023-02-01T06:41:05.531Z,968.14
2023-02-01T06:42:05.653Z,968.24
2023-02-01T06:43:05.543Z,968.17
2023-02-01T06:44:05.519Z,968.17
2023-02-01T06:45:05.489Z,968.12
2023-02-01T06:46:05.492Z,968.12
2023-02-01T06:47:07.950Z,968.16
2023-02-01T06:48:05.488Z,968.18
2023-02-01T06:49:05.475Z,968.20
2023-02-01T06:50:05.457Z,968.18
2023-02-01T06:51:05.420Z,968.27
2023-02-01T06:52:05.414Z,968.25
2023-02-01T06:53:05.417Z,968.25
2023-02-01T06:54:05.394Z,968.35
2023-02-01T06:55:05.406Z,968.32
2023-02-01T06:56:05.482Z,968.30
2023-02-01T06:57:05.388Z,968.31
2023-02-01T06:58:05.352Z,968.24
2023-02-01T06:59:05.352Z,968.35
2023-02-01T07:00:05.354Z,968.26
2023-02-01T07:01:05.373Z,968.26
2023-02-01T07:02:05.363Z,968.25
2023-02-01T07:03:05.285Z,968.30
2023-02-01T07:04:05.347Z,968.30
2023-02-01T07:05:05.264Z,968.28
2023-02-01T07:06:05.284Z,968.27
2023-02-01T07:07:05.296Z,968.25
2023-02-01T07:08:05.232Z,968.22
2023-02-01T07:09:05.225Z,968.17
2023-02-01T07:10:05.264Z,968.21
2023-02-01T07:11:05.243Z,968.21
2023-02-01T07:12:05.218Z,968.20
2023-02-01T07:13:05.219Z,968.24
2023-02-01T07:14:05.168Z,968.30
2023-02-01T07:15:05.172Z,968.32
2023-02-01T07:16:05.164Z,968.38
2023-02-01T07:17:05.164Z,968.46
2023-02-01T07:18:05.132Z,968.45
2023-02-01T07:19:05.154Z,968.44
2023-02-01T07:20:05.156Z,968.46
2023-02-01T07:21:05.086Z,968.38
2023-02-01T07:22:05.107Z,968.32
2023-02-01T07:23:05.076Z,968.33
2023-02-01T07:24:05.073Z,968.36
2023-02-01T07:25:06.595Z,968.31
2023-02-01T07:26:05.034Z,968.31
2023-02-01T07:27:05.045Z,968.31
2023-02-01T07:28:05.063Z,968.24
2023-02-01T07:29:05.019Z,968.31
2023-02-01T07:30:05.013Z,968.37
2023-02-01T07:31:05.081Z,968.41
2023-02-01T07:32:04.967Z,968.27
2023-02-01T07:33:04.971Z,968.31
2023-02-01T07:34:04.970Z,968.31
2023-02-01T07:35:04.949Z,968.33
2023-02-01T07:36:04.922Z,968.35
2023-02-01T07:37:04.909Z,968.35
2023-02-01T07:38:04.923Z,968.24
2023-02-01T07:39:04.913Z,968.29
2023-02-01T07:40:04.909Z,968.34
2023-02-01T07:41:04.888Z,968.27
2023-02-01T07:42:04.898Z,968.23
2023-02-01T07:43:04.843Z,968.28
2023-02-01T07:44:04.856Z,968.30
2023-02-01T07:45:19.905Z,968.28
2023-02-01T07:46:05.886Z,968.34
2023-02-01T07:47:04.824Z,968.22
2023-02-01T07:48:04.829Z,968.21
2023-02-01T07:49:04.784Z,968.27
2023-02-01T07:50:04.791Z,968.28
2023-02-01T07:51:04.755Z,968.19
2023-02-01T07:52:04.761Z,968.17
2023-02-01T07:53:04.734Z,968.29
2023-02-01T07:54:04.733Z,968.28
2023-02-01T07:55:04.721Z,968.25
2023-02-01T07:56:04.745Z,968.33
2023-02-01T07:57:04.694Z,968.38
2023-02-01T07:58:04.691Z,968.38
2023-02-01T07:59:04.664Z,968.43
2023-02-01T08:00:04.728Z,968.44
2023-02-01T08:01:04.784Z,968.40
2023-02-01T08:02:04.732Z,968.44
2023-02-01T08:03:04.632Z,968.44
2023-02-01T08:04:04.636Z,968.45
2023-02-01T08:05:04.601Z,968.45
2023-02-01T08:06:04.600Z,968.47
2023-02-01T08:07:04.583Z,968.49
2023-02-01T08:08:04.613Z,968.49
2023-02-01T08:09:04.569Z,968.57
2023-02-01T08:10:04.576Z,968.56
2023-02-01T08:11:04.531Z,968.54
2023-02-01T08:12:04.561Z,968.59
2023-02-01T08:13:04.546Z,968.55
2023-02-01T08:14:04.523Z,968.57
2023-02-01T08:15:04.513Z,968.55
2023-02-01T08:16:04.784Z,968.49
2023-02-01T08:17:04.499Z,968.50
2023-02-01T08:18:04.478Z,968.49
2023-02-01T08:19:05.327Z,968.47
2023-02-01T08:20:04.442Z,968.40
2023-02-01T08:21:04.447Z,968.46
2023-02-01T08:22:04.449Z,968.38
2023-02-01T08:23:04.414Z,968.44
2023-02-01T08:24:04.397Z,968.34
2023-02-01T08:25:04.455Z,968.39
2023-02-01T08:26:04.383Z,968.37
2023-02-01T08:27:04.380Z,968.39
2023-02-01T08:28:04.461Z,968.40
2023-02-01T08:29:04.330Z,968.39
2023-02-01T08:30:04.350Z,968.36
2023-02-01T08:31:04.506Z,968.27
2023-02-01T08:32:04.507Z,968.21
2023-02-01T08:33:04.285Z,968.23
2023-02-01T08:34:04.291Z,968.17
2023-02-01T08:35:04.278Z,968.22
2023-02-01T08:36:04.271Z,968.30
2023-02-01T08:37:04.262Z,968.29
2023-02-01T08:38:04.276Z,968.42
2023-02-01T08:39:04.216Z,968.35
2023-02-01T08:40:04.285Z,968.29
2023-02-01T08:41:04.205Z,968.24
2023-02-01T08:42:04.246Z,968.28
2023-02-01T08:43:04.193Z,968.27
2023-02-01T08:44:04.185Z,968.23
2023-02-01T08:45:04.160Z,968.25
2023-02-01T08:46:04.219Z,968.29
2023-02-01T08:47:04.139Z,968.24
2023-02-01T08:48:04.189Z,968.28
2023-02-01T08:49:04.131Z,968.30
2023-02-01T08:50:04.097Z,968.41
2023-02-01T08:51:04.085Z,968.43
2023-02-01T08:52:07.299Z,968.48
2023-02-01T08:53:05.113Z,968.47
2023-02-01T08:54:04.100Z,968.56
2023-02-01T08:55:04.080Z,968.52
2023-02-01T08:56:04.027Z,968.51
2023-02-01T08:57:04.021Z,968.49
2023-02-01T08:58:04.010Z,968.62
2023-02-01T08:59:04.029Z,968.64
2023-02-01T09:00:04.040Z,968.65
2023-02-01T09:01:04.022Z,968.55
2023-02-01T09:02:03.959Z,968.59
2023-02-01T09:03:03.963Z,968.48
2023-02-01T09:04:04.000Z,968.44
2023-02-01T09:05:03.926Z,968.48
2023-02-01T09:06:03.954Z,968.47
2023-02-01T09:07:03.940Z,968.48
2023-02-01T09:08:03.911Z,968.34
2023-02-01T09:09:03.881Z,968.30
2023-02-01T09:10:03.892Z,968.32
2023-02-01T09:11:03.898Z,968.33
2023-02-01T09:12:03.879Z,968.25
2023-02-01T09:13:03.847Z,968.32
2023-02-01T09:14:03.828Z,968.30
2023-02-01T09:15:03.952Z,968.23
2023-02-01T09:16:03.976Z,968.30
2023-02-01T09:17:03.807Z,968.29
2023-02-01T09:18:03.801Z,968.32
2023-02-01T09:19:25.884Z,968.30
2023-02-01T09:20:04.916Z,968.40
2023-02-01T09:21:03.756Z,968.38
2023-02-01T09:22:03.771Z,968.40
2023-02-01T09:23:03.745Z,968.44
2023-02-01T09:24:03.748Z,968.52
2023-02-01T09:25:03.818Z,968.48
2023-02-01T09:26:03.690Z,968.56
2023-02-01T09:27:03.780Z,968.53
2023-02-01T09:28:03.670Z,968.57
2023-02-01T09:29:03.680Z,968.55
2023-02-01T09:30:03.688Z,968.56
2023-02-01T09:31:03.754Z,968.64
2023-02-01T09:32:04.699Z,968.60
2023-02-01T09:33:03.637Z,968.66
2023-02-01T09:34:03.614Z,968.68
2023-02-01T09:35:03.607Z,968.67
2023-02-01T09:36:03.648Z,968.62
2023-02-01T09:37:03.590Z,968.61
2023-02-01T09:38:03.554Z,968.58
2023-02-01T09:39:03.554Z,968.51
2023-02-01T09:40:03.554Z,968.55
2023-02-01T09:41:03.534Z,968.59
2023-02-01T09:42:03.542Z,968.53
2023-02-01T09:43:03.522Z,968.62
2023-02-01T09:44:03.498Z,968.57
2023-02-01T09:45:03.508Z,968.68
2023-02-01T09:46:03.513Z,968.69
2023-02-01T09:47:03.505Z,968.71
2023-02-01T09:48:03.455Z,968.65
2023-02-01T09:49:03.504Z,968.59
2023-02-01T09:50:03.427Z,968.70
2023-02-01T09:51:03.427Z,968.58
2023-02-01T09:52:03.416Z,968.63
2023-02-01T09:53:03.422Z,968.65
2023-02-01T09:54:03.377Z,968.61
2023-02-01T09:55:03.377Z,968.63
2023-02-01T09:56:03.365Z,968.65
2023-02-01T09:57:03.358Z,968.55
2023-02-01T09:58:03.365Z,968.56
2023-02-01T09:59:03.422Z,968.62
2023-02-01T10:00:03.318Z,968.56
2023-02-01T10:01:03.357Z,968.60
2023-02-01T10:02:03.314Z,968.65
2023-02-01T10:03:03.294Z,968.53
2023-02-01T10:04:03.268Z,968.53
2023-02-01T10:05:03.270Z,968.57
2023-02-01T10:06:03.239Z,968.54
2023-02-01T10:07:03.231Z,968.62
2023-02-01T10:08:03.249Z,968.54
2023-02-01T10:09:03.225Z,968.56
2023-02-01T10:10:03.192Z,968.50
2023-02-01T10:11:03.811Z,968.52
2023-02-01T10:12:03.180Z,968.63
2023-02-01T10:13:03.166Z,968.55
2023-02-01T10:14:03.182Z,968.56
2023-02-01T10:15:03.171Z,968.62
2023-02-01T10:16:03.298Z,968.62
2023-02-01T10:17:03.160Z,968.64
2023-02-01T10:18:03.113Z,968.70
2023-02-01T10:19:03.095Z,968.65
2023-02-01T10:20:03.146Z,968.65
2023-02-01T10:21:03.072Z,968.88
2023-02-01T10:22:03.061Z,968.67
2023-02-01T10:23:23.174Z,968.68
2023-02-01T10:24:16.068Z,968.75
2023-02-01T10:25:04.067Z,968.79
2023-02-01T10:26:03.068Z,968.81
2023-02-01T10:27:03.039Z,968.73
2023-02-01T10:28:03.007Z,968.91
2023-02-01T10:29:02.983Z,968.79
2023-02-01T10:30:03.001Z,968.79
2023-02-01T10:31:03.135Z,968.66
2023-02-01T10:32:02.984Z,968.78
2023-02-01T10:33:02.940Z,968.82
2023-02-01T10:34:03.029Z,968.77
2023-02-01T10:35:02.958Z,968.82
2023-02-01T10:36:02.904Z,968.80
2023-02-01T10:37:02.924Z,968.83
2023-02-01T10:38:02.882Z,968.93
2023-02-01T10:39:02.936Z,968.83
2023-02-01T10:40:02.914Z,968.81
2023-02-01T10:41:02.879Z,968.70
2023-02-01T10:42:02.868Z,968.82
2023-02-01T10:43:02.858Z,968.86
2023-02-01T10:44:02.817Z,968.86
2023-02-01T10:45:02.861Z,968.80
2023-02-01T10:46:02.853Z,968.77
2023-02-01T10:47:02.804Z,968.78
2023-02-01T10:48:02.799Z,968.76
2023-02-01T10:49:02.774Z,968.77
2023-02-01T10:50:02.752Z,968.87
2023-02-01T10:51:02.759Z,968.84
2023-02-01T10:52:02.756Z,968.72
2023-02-01T10:53:02.726Z,968.76
2023-02-01T10:54:02.706Z,968.77
2023-02-01T10:55:02.709Z,968.91
2023-02-01T10:56:02.695Z,968.82
2023-02-01T10:57:02.670Z,968.89
2023-02-01T10:58:02.700Z,968.95
2023-02-01T10:59:02.655Z,968.94
2023-02-01T11:00:02.644Z,968.94
2023-02-01T11:01:02.624Z,968.94
2023-02-01T11:02:02.679Z,968.93
2023-02-01T11:03:02.624Z,968.91
2023-02-01T11:04:02.624Z,968.90
2023-02-01T11:05:02.587Z,968.95
2023-02-01T11:06:02.585Z,968.85
2023-02-01T11:07:11.430Z,968.88
2023-02-01T11:08:02.544Z,968.97
2023-02-01T11:09:02.561Z,968.93
2023-02-01T11:10:02.529Z,968.97
2023-02-01T11:11:02.537Z,968.97
2023-02-01T11:12:02.527Z,968.94
2023-02-01T11:13:02.526Z,969.02
2023-02-01T11:14:02.498Z,968.96
2023-02-01T11:15:02.507Z,968.89
2023-02-01T11:16:02.491Z,969.08
2023-02-01T11:17:02.469Z,969.02
2023-02-01T11:18:02.432Z,969.01
2023-02-01T11:19:02.449Z,968.97
2023-02-01T11:20:02.422Z,969.00
2023-02-01T11:21:02.414Z,968.87
2023-02-01T11:22:02.421Z,968.93
2023-02-01T11:23:02.411Z,968.88
2023-02-01T11:24:02.400Z,968.94
2023-02-01T11:25:02.365Z,968.80
2023-02-01T11:26:02.387Z,968.89
2023-02-01T11:27:02.339Z,968.86
2023-02-01T11:28:02.363Z,968.92
2023-02-01T11:29:02.311Z,968.98
2023-02-01T11:30:02.305Z,968.91
2023-02-01T11:31:02.469Z,968.97
2023-02-01T11:32:02.281Z,968.96
2023-02-01T11:33:02.827Z,968.92
2023-02-01T11:34:02.280Z,968.92
2023-02-01T11:35:02.239Z,968.94
2023-02-01T11:36:02.233Z,969.10
2023-02-01T11:37:02.250Z,968.97
2023-02-01T11:38:02.235Z,969.01
2023-02-01T11:39:03.314Z,968.86
2023-02-01T11:40:02.262Z,968.91
2023-02-01T11:41:02.174Z,968.96
2023-02-01T11:42:02.161Z,968.93
2023-02-01T11:43:02.149Z,968.85
2023-02-01T11:44:02.196Z,968.93
2023-02-01T11:45:02.522Z,968.90
2023-02-01T11:46:02.155Z,968.98
2023-02-01T11:47:02.105Z,968.91
2023-02-01T11:48:02.121Z,968.85
2023-02-01T11:49:02.097Z,968.91
2023-02-01T11:50:02.110Z,968.91
2023-02-01T11:51:02.069Z,968.87
2023-02-01T11:52:02.123Z,968.85
2023-02-01T11:53:02.117Z,968.77
2023-02-01T11:54:02.029Z,968.86
2023-02-01T11:55:02.029Z,968.73
2023-02-01T11:56:02.015Z,968.68
2023-02-01T11:57:02.012Z,968.77
2023-02-01T11:58:02.057Z,968.72
2023-02-01T11:59:02.010Z,968.65
2023-02-01T12:00:01.979Z,968.63
2023-02-01T12:01:01.948Z,968.61
2023-02-01T12:02:01.969Z,968.50
2023-02-01T12:03:02.000Z,968.54
2023-02-01T12:04:01.924Z,968.47
2023-02-01T12:05:01.907Z,968.54
2023-02-01T12:06:01.933Z,968.54
2023-02-01T12:07:01.923Z,968.50
2023-02-01T12:08:01.894Z,968.46
2023-02-01T12:09:01.904Z,968.42
2023-02-01T12:10:01.874Z,968.41
2023-02-01T12:11:01.836Z,968.44
2023-02-01T12:12:01.873Z,968.45
2023-02-01T12:13:01.862Z,968.40
2023-02-01T12:14:01.829Z,968.47
2023-02-01T12:15:01.836Z,968.31
2023-02-01T12:16:01.890Z,968.44
2023-02-01T12:17:01.775Z,968.38
2023-02-01T12:18:01.797Z,968.35
2023-02-01T12:19:01.784Z,968.40
2023-02-01T12:20:01.776Z,968.32
2023-02-01T12:21:01.761Z,968.35
2023-02-01T12:22:01.718Z,968.31
2023-02-01T12:23:01.708Z,968.25
2023-02-01T12:24:01.702Z,968.31
2023-02-01T12:25:01.725Z,968.27
2023-02-01T12:26:02.370Z,968.26
2023-02-01T12:27:01.677Z,968.29
2023-02-01T12:28:01.651Z,968.24